Time;durP1;ratioP1;P1;durP2;ratioP2;P2;SDS_P1;SDS_P2;PMS_P1;PMS_P2;Temp;Humidity;BMP_temperature;BMP_pressure;BME280_temperature;BME280_humidity;BME280_pressure;Samples;Min_cycle;Max_cycle;Signal;HPM_P1;HPM_P2
2022/01/23 00:00:31;;;;;;;18.88;10.30;;;;;;;7.06;79.81;102971.53;4830798;29;20145;-80
2022/01/23 00:03:19;;;;;;;6.28;3.70;;;;;;;7.03;79.46;102978.41;4827582;29;20050;-80
2022/01/23 00:06:06;;;;;;;10.65;6.93;;;;;;;7.03;79.55;102972.06;4828916;29;20053;-80
2022/01/23 00:08:53;;;;;;;14.68;6.13;;;;;;;7.03;79.55;102977.56;4780629;29;20066;-80
2022/01/23 00:11:48;;;;;;;13.80;8.48;;;;;;;7.04;79.56;102973.72;4781143;29;20180;-81
2022/01/23 00:17:41;;;;;;;17.52;9.13;;;;;;;7.04;79.30;102973.72;4785526;29;22090;-81
2022/01/23 00:20:28;;;;;;;22.55;11.45;;;;;;;7.02;79.21;102964.88;4782983;29;20077;-80
2022/01/23 00:23:30;;;;;;;27.40;13.65;;;;;;;7.00;79.33;102965.16;4780136;29;20062;-80
2022/01/23 00:33:34;;;;;;;10.43;4.90;;;;;;;6.98;79.47;102967.34;4783002;29;20074;-80
2022/01/23 00:36:22;;;;;;;14.82;10.23;;;;;;;6.99;78.97;102970.94;4784691;29;20093;-81
2022/01/23 00:39:09;;;;;;;39.35;19.80;;;;;;;6.98;79.20;102969.28;4785808;29;20082;-81
2022/01/23 00:41:57;;;;;;;28.80;15.02;;;;;;;6.97;78.83;102964.84;4796789;29;20050;-80
2022/01/23 00:44:47;;;;;;;24.60;9.38;;;;;;;6.95;79.07;102959.63;4830957;29;20061;-81
2022/01/23 00:47:34;;;;;;;10.45;6.57;;;;;;;6.91;78.77;102954.94;4832112;29;20053;-81
2022/01/23 00:50:21;;;;;;;12.00;5.50;;;;;;;6.90;78.35;102950.50;4830775;29;20054;-81
2022/01/23 00:56:50;;;;;;;10.45;5.40;;;;;;;6.89;78.18;102946.06;4817046;29;20402;-80
2022/01/23 00:59:17;;;;;;;12.15;7.20;;;;;;;6.88;78.10;102948.03;4796080;29;20398;-81
2022/01/23 01:01:44;;;;;;;7.75;4.43;;;;;;;6.88;78.16;102944.44;4793670;29;20045;-81
2022/01/23 01:07:56;;;;;;;29.35;15.57;;;;;;;6.83;77.81;102928.69;4798675;29;20395;-81
2022/01/23 01:10:31;;;;;;;24.05;13.65;;;;;;;6.82;77.82;102931.72;4816391;29;20050;-81
2022/01/23 01:13:18;;;;;;;9.95;4.93;;;;;;;6.82;77.37;102929.81;4798933;29;20054;-81
2022/01/23 01:31:37;;;;;;;10.27;4.95;;;;;;;6.70;76.78;102907.97;4798217;29;20051;-81
2022/01/23 01:34:37;;;;;;;6.90;4.00;;;;;;;6.68;76.49;102907.44;4798973;29;20131;-80
2022/01/23 01:37:24;;;;;;;11.75;4.38;;;;;;;6.67;76.26;102891.19;4798858;29;20488;-80
2022/01/23 01:40:11;;;;;;;11.32;4.60;;;;;;;6.68;76.58;102899.16;4795077;29;20052;-80
2022/01/23 01:42:58;;;;;;;11.73;2.75;;;;;;;6.67;76.28;102891.19;4798748;29;20054;-80
2022/01/23 01:45:46;;;;;;;10.57;3.78;;;;;;;6.64;76.32;102884.31;4799234;29;20101;-81
2022/01/23 01:48:33;;;;;;;26.52;11.40;;;;;;;6.62;76.15;102889.22;4799131;29;20043;-80
2022/01/23 01:51:20;;;;;;;15.98;6.05;;;;;;;6.62;76.12;102869.97;4797765;29;20054;-80
2022/01/23 01:54:15;;;;;;;20.13;7.72;;;;;;;6.63;76.25;102885.38;4799570;29;20038;-80
2022/01/23 01:57:08;;;;;;;16.88;6.28;;;;;;;6.62;76.12;102872.72;4800383;29;20043;-80
2022/01/23 02:00:13;;;;;;;9.45;3.72;;;;;;;6.58;76.15;102871.59;4832223;29;20072;-78
2022/01/23 02:08:56;;;;;;;9.82;4.85;;;;;;;6.57;75.92;102860.84;4832665;29;20066;-79
2022/01/23 02:54:55;;;;;;;5.28;1.80;;;;;;;6.38;75.53;102843.16;4829586;29;20979;-80
2022/01/23 03:00:36;;;;;;;5.93;2.53;;;;;;;6.33;75.45;102852.16;4832917;29;20304;-79
2022/01/23 03:10:42;;;;;;;4.63;2.15;;;;;;;6.29;74.87;102848.31;4830740;29;20054;-80
2022/01/23 03:13:55;;;;;;;6.05;1.85;;;;;;;6.26;74.98;102846.09;4830920;29;20410;-79
2022/01/23 03:34:41;;;;;;;11.93;4.13;;;;;;;6.12;74.92;102844.88;4832199;29;20135;-80
2022/01/23 03:37:28;;;;;;;8.68;2.97;;;;;;;6.11;74.81;102843.25;4832261;29;20501;-79
2022/01/23 03:40:17;;;;;;;6.32;2.50;;;;;;;6.10;74.67;102850.66;4831654;29;20412;-80
2022/01/23 03:43:13;;;;;;;7.30;2.65;;;;;;;6.13;74.65;102844.63;4831323;29;20094;-79
2022/01/23 03:46:22;;;;;;;5.95;2.75;;;;;;;6.13;74.48;102841.03;4831610;29;20474;-80
2022/01/23 03:52:15;;;;;;;6.70;3.75;;;;;;;6.07;74.68;102847.59;4830665;29;20503;-79
2022/01/23 03:55:05;;;;;;;5.45;2.55;;;;;;;6.00;74.43;102842.34;4832314;29;20045;-80
2022/01/23 03:57:52;;;;;;;7.93;2.60;;;;;;;6.00;74.49;102841.50;4829462;29;20056;-80
2022/01/23 04:00:39;;;;;;;5.72;3.15;;;;;;;6.00;74.54;102836.84;4832106;29;20501;-80
2022/01/23 04:03:27;;;;;;;11.18;4.53;;;;;;;5.99;74.53;102845.34;4830792;29;20045;-80
2022/01/23 04:06:14;;;;;;;7.05;3.47;;;;;;;5.99;74.36;102845.34;4830452;29;20038;-79
2022/01/23 04:09:01;;;;;;;5.32;2.85;;;;;;;6.00;74.63;102841.50;4829459;29;20690;-80
2022/01/23 04:11:49;;;;;;;6.70;3.97;;;;;;;5.99;74.51;102839.84;4829717;29;20042;-79
2022/01/23 04:14:42;;;;;;;8.43;3.60;;;;;;;5.99;74.47;102842.59;4831029;29;20479;-79
2022/01/23 04:20:50;;;;;;;10.32;5.05;;;;;;;5.92;74.38;102837.31;4831125;29;20081;-80
2022/01/23 04:45:32;;;;;;;6.47;3.53;;;;;;;5.89;75.08;102818.59;4830661;29;20042;-79
2022/01/23 05:05:26;;;;;;;6.65;3.80;;;;;;;5.89;75.33;102801.28;4828585;29;20050;-80
2022/01/23 05:08:18;;;;;;;4.68;2.83;;;;;;;5.90;75.28;102786.44;4828594;29;20058;-78
2022/01/23 05:10:46;;;;;;;3.45;2.60;;;;;;;5.87;75.27;102786.97;4830275;29;20053;-79
2022/01/23 05:13:13;;;;;;;5.28;2.75;;;;;;;5.89;75.25;102790.28;4828971;29;20057;-80
2022/01/23 05:19:49;;;;;;;4.88;2.20;;;;;;;5.93;75.44;102780.44;4830707;29;20038;-79
2022/01/23 05:22:36;;;;;;;9.07;3.42;;;;;;;5.92;75.13;102781.50;4831229;29;20129;-79
2022/01/23 05:28:43;;;;;;;4.05;2.60;;;;;;;5.92;75.05;102781.50;4830076;29;20124;-78
2022/01/23 05:31:11;;;;;;;3.53;2.28;;;;;;;5.95;75.34;102783.72;4830947;29;20136;-79
2022/01/23 05:40:56;;;;;;;3.88;2.25;;;;;;;5.97;75.41;102770.53;4831316;29;20058;-79
2022/01/23 05:43:43;;;;;;;6.28;2.33;;;;;;;5.97;75.39;102781.53;4827012;29;20054;-79
2022/01/23 05:46:30;;;;;;;7.05;2.13;;;;;;;5.94;75.47;102777.41;4830753;29;20053;-79
2022/01/23 05:49:18;;;;;;;6.90;2.30;;;;;;;5.94;75.24;102777.41;4830637;29;20082;-78
2022/01/23 05:52:06;;;;;;;3.78;1.95;;;;;;;5.93;75.18;102769.44;4833588;29;20050;-80
2022/01/23 05:54:53;;;;;;;2.10;1.90;;;;;;;5.92;75.28;102767.75;4832499;29;20065;-78
2022/01/23 05:57:40;;;;;;;4.50;2.20;;;;;;;5.88;74.99;102761.97;4832335;29;20191;-78
2022/01/23 06:00:28;;;;;;;3.83;2.25;;;;;;;5.88;74.80;102761.97;4833075;29;20125;-79
2022/01/23 06:03:17;;;;;;;2.95;1.98;;;;;;;5.91;75.26;102771.59;4832544;29;20049;-79
2022/01/23 06:06:04;;;;;;;3.33;2.15;;;;;;;5.91;74.94;102766.94;4833076;29;20585;-79
2022/01/23 06:08:53;;;;;;;6.25;2.58;;;;;;;5.90;75.19;102764.47;4830961;29;20071;-79
2022/01/23 06:11:20;;;;;;;6.95;2.40;;;;;;;5.87;75.09;102765.81;4832235;29;20054;-79
2022/01/23 06:13:46;;;;;;;4.88;2.47;;;;;;;5.85;75.23;102761.69;4834647;29;20550;-79
2022/01/23 06:16:34;;;;;;;4.93;2.50;;;;;;;5.83;74.97;102764.66;4831023;29;20054;-79
2022/01/23 06:19:21;;;;;;;5.93;2.10;;;;;;;5.82;74.83;102764.91;4832631;29;20057;-79
2022/01/23 06:22:11;;;;;;;1.92;1.80;;;;;;;5.83;75.09;102769.31;4831633;29;20519;-79
2022/01/23 06:24:45;;;;;;;3.78;2.17;;;;;;;5.82;75.21;102757.50;4832727;29;20061;-79
2022/01/23 06:27:12;;;;;;;6.20;2.80;;;;;;;5.82;75.02;102759.44;4835417;29;20144;-78
2022/01/23 06:29:42;;;;;;;3.75;2.17;;;;;;;5.81;75.03;102755.84;4832191;29;20907;-78
2022/01/23 06:32:33;;;;;;;6.78;2.15;;;;;;;5.81;74.66;102755.00;4831863;29;20049;-79
2022/01/23 06:35:20;;;;;;;6.70;2.50;;;;;;;5.80;74.76;102753.38;4831874;29;20405;-79
2022/01/23 06:38:07;;;;;;;5.68;2.53;;;;;;;5.79;75.09;102752.53;4832351;29;20045;-78
2022/01/23 06:40:54;;;;;;;4.97;2.22;;;;;;;5.80;74.66;102753.38;4832518;29;20046;-79
2022/01/23 06:43:41;;;;;;;5.90;1.92;;;;;;;5.77;74.65;102743.69;4831393;29;20376;-79
2022/01/23 06:46:28;;;;;;;3.28;1.95;;;;;;;5.81;74.63;102749.50;4831152;29;20050;-78
2022/01/23 06:49:15;;;;;;;5.97;2.55;;;;;;;5.81;74.37;102755.00;4830878;29;20069;-78
2022/01/23 06:52:03;;;;;;;2.72;2.03;;;;;;;5.80;74.28;102754.16;4832103;29;20489;-78
2022/01/23 06:54:50;;;;;;;2.65;1.55;;;;;;;5.82;74.08;102754.75;4833296;29;20410;-79
2022/01/23 06:57:24;;;;;;;2.25;1.70;;;;;;;5.83;74.26;102752.81;4818999;29;20126;-79
2022/01/23 06:59:51;;;;;;;5.60;2.50;;;;;;;5.81;74.32;102750.34;4831495;29;20425;-79
2022/01/23 07:02:20;;;;;;;7.15;2.40;;;;;;;5.81;74.29;102746.75;4830740;29;20053;-79
2022/01/23 07:04:46;;;;;;;5.22;1.90;;;;;;;5.81;74.35;102744.00;4831792;29;20080;-79
2022/01/23 07:07:34;;;;;;;4.05;2.08;;;;;;;5.81;74.22;102744.00;4829245;29;20068;-79
2022/01/23 07:10:21;;;;;;;5.45;2.40;;;;;;;5.79;74.29;102751.69;4832218;29;20056;-80
2022/01/23 07:13:08;;;;;;;2.40;1.73;;;;;;;5.80;74.28;102747.88;4833527;29;21278;-79
2022/01/23 07:15:55;;;;;;;2.28;1.83;;;;;;;5.83;74.29;102747.31;4828746;29;20099;-79
2022/01/23 07:18:42;;;;;;;4.03;1.95;;;;;;;5.82;74.51;102746.50;4831462;29;20046;-79
2022/01/23 07:21:29;;;;;;;5.55;2.30;;;;;;;5.78;74.46;102748.13;4830764;29;20452;-79
2022/01/23 07:24:16;;;;;;;4.82;1.75;;;;;;;5.80;74.44;102754.16;4831583;29;20386;-79
2022/01/23 07:27:13;;;;;;;3.17;2.03;;;;;;;5.81;74.38;102757.75;4831276;29;20076;-79
2022/01/23 07:30:00;;;;;;;4.07;1.48;;;;;;;5.82;74.45;102751.19;4831100;29;20384;-79
2022/01/23 07:32:47;;;;;;;6.40;1.58;;;;;;;5.81;74.36;102753.09;4832107;29;20058;-79
2022/01/23 07:35:34;;;;;;;3.75;1.75;;;;;;;5.81;74.43;102749.50;4828430;29;20884;-79
2022/01/23 07:38:21;;;;;;;4.03;1.65;;;;;;;5.79;74.39;102752.53;4829686;29;20091;-79
2022/01/23 07:45:20;;;;;;;3.17;1.70;;;;;;;5.79;74.51;102748.94;4827922;29;20486;-78
2022/01/23 07:52:18;;;;;;;4.95;1.92;;;;;;;5.77;74.30;102742.91;4831616;29;20502;-79
2022/01/23 07:55:08;;;;;;;3.17;1.55;;;;;;;5.77;74.53;102740.94;4830930;29;20479;-79
2022/01/23 07:58:02;;;;;;;1.92;1.70;;;;;;;5.78;74.69;102747.28;4832491;29;20653;-78
2022/01/23 08:00:49;;;;;;;5.53;3.08;;;;;;;5.80;74.59;102750.63;4832382;29;20049;-79
2022/01/23 08:03:40;;;;;;;7.15;1.92;;;;;;;5.81;74.46;102746.75;4831485;29;20054;-79
2022/01/23 08:06:32;;;;;;;2.85;2.30;;;;;;;5.83;74.46;102755.56;4830276;29;20503;-79
2022/01/23 08:09:19;;;;;;;5.05;2.20;;;;;;;5.84;74.63;102748.97;4831392;29;20054;-79
2022/01/23 08:12:07;;;;;;;4.68;2.20;;;;;;;5.84;74.35;102755.31;4831474;29;20061;-79
2022/01/23 08:14:55;;;;;;;2.63;2.00;;;;;;;5.86;74.69;102750.41;4828111;29;20050;-79
2022/01/23 08:17:42;;;;;;;4.93;1.73;;;;;;;5.85;74.57;102761.69;4830686;29;20043;-79
2022/01/23 08:20:30;;;;;;;4.97;1.95;;;;;;;5.83;74.46;102761.91;4829344;29;20050;-79
2022/01/23 08:23:18;;;;;;;4.53;1.73;;;;;;;5.83;74.72;102750.91;4831455;29;20038;-77
2022/01/23 08:29:58;;;;;;;2.83;1.90;;;;;;;5.81;74.46;102755.84;4831776;29;20517;-78
2022/01/23 08:32:25;;;;;;;2.30;2.08;;;;;;;5.81;74.83;102744.00;4829423;29;20549;-78
2022/01/23 08:34:52;;;;;;;7.05;2.25;;;;;;;5.79;74.79;102747.03;4829765;29;20045;-77
2022/01/23 08:37:20;;;;;;;1.88;1.67;;;;;;;5.81;74.69;102744.00;4830100;29;20542;-78
2022/01/23 08:39:47;;;;;;;10.07;2.38;;;;;;;5.84;74.64;102740.75;4829359;29;20052;-77
2022/01/23 08:42:17;;;;;;;3.08;1.60;;;;;;;5.83;74.59;102742.66;4830385;29;20065;-78
2022/01/23 08:44:58;;;;;;;3.85;1.70;;;;;;;5.82;74.45;102745.69;4825244;29;20041;-78
2022/01/23 08:47:24;;;;;;;6.10;1.95;;;;;;;5.84;74.66;102749.81;4830932;29;20431;-78
2022/01/23 08:53:47;;;;;;;2.58;1.77;;;;;;;5.85;74.77;102740.50;4827493;29;20347;-77
2022/01/23 08:56:34;;;;;;;4.57;0.93;;;;;;;5.85;74.65;102742.44;4827881;29;20049;-78
2022/01/23 08:59:01;;;;;;;2.10;1.40;;;;;;;5.85;74.52;102750.69;4827726;29;20046;-78
2022/01/23 09:01:28;;;;;;;3.28;1.40;;;;;;;5.86;74.88;102758.66;4829176;29;20070;-77
2022/01/23 09:03:56;;;;;;;4.18;1.20;;;;;;;5.89;74.53;102752.63;4830028;29;20090;-78
2022/01/23 09:06:23;;;;;;;1.98;0.82;;;;;;;5.91;74.31;102744.94;4828299;29;20026;-78
2022/01/23 09:08:51;;;;;;;2.30;1.23;;;;;;;5.95;74.66;102750.75;4829279;29;20054;-78
2022/01/23 09:11:26;;;;;;;2.53;1.13;;;;;;;5.95;74.39;102740.59;4828839;29;20042;-78
2022/01/23 09:14:14;;;;;;;6.43;1.33;;;;;;;5.96;74.47;102752.38;4830632;29;20639;-77
2022/01/23 09:16:44;;;;;;;5.60;1.00;;;;;;;5.96;74.66;102752.38;4830623;29;20034;-77
2022/01/23 09:19:32;;;;;;;1.67;0.65;;;;;;;5.95;74.40;102751.59;4829738;29;20132;-78
2022/01/23 09:25:39;;;;;;;2.50;0.90;;;;;;;6.00;74.62;102742.53;4832429;29;20368;-78
2022/01/23 09:31:49;;;;;;;2.33;1.42;;;;;;;6.01;74.73;102744.19;4831177;29;20532;-76
2022/01/23 09:34:19;;;;;;;1.48;0.82;;;;;;;6.02;74.58;102741.16;4831137;29;20554;-78
2022/01/23 09:36:47;;;;;;;4.47;0.80;;;;;;;6.05;74.94;102737.06;4851193;29;20470;-77
2022/01/23 09:43:27;;;;;;;5.53;0.93;;;;;;;6.08;74.75;102742.84;4829244;29;20077;-77
2022/01/23 09:46:52;;;;;;;2.70;0.70;;;;;;;6.10;74.88;102737.91;4830540;29;20050;-78
2022/01/23 09:49:24;;;;;;;2.08;0.75;;;;;;;6.12;74.89;102726.63;4830662;29;20046;-78
2022/01/23 09:51:58;;;;;;;2.88;0.70;;;;;;;6.15;74.94;102734.34;4830225;29;20830;-78
2022/01/23 09:54:25;;;;;;;6.55;1.80;;;;;;;6.19;74.77;102738.25;4830910;29;20056;-78
2022/01/23 09:56:52;;;;;;;3.42;1.10;;;;;;;6.21;74.65;102727.78;4834647;29;20060;-78
2022/01/23 09:59:19;;;;;;;3.45;0.80;;;;;;;6.23;74.78;102736.59;4830468;29;20054;-78
2022/01/23 10:01:53;;;;;;;4.55;1.10;;;;;;;6.27;74.90;102747.91;4832752;29;20038;-78
2022/01/23 10:04:28;;;;;;;4.00;0.85;;;;;;;6.28;74.84;102747.63;4832824;29;20497;-78
2022/01/23 10:06:56;;;;;;;2.22;0.93;;;;;;;6.32;75.10;102743.25;4830695;29;20668;-77
2022/01/23 10:09:25;;;;;;;1.38;0.80;;;;;;;6.36;74.74;102735.28;4832394;29;20034;-78
2022/01/23 10:11:53;;;;;;;2.38;0.55;;;;;;;6.37;74.48;102734.19;4831441;29;20360;-78
2022/01/23 10:14:20;;;;;;;3.45;0.50;;;;;;;6.35;74.69;102733.63;4832541;29;20572;-77
2022/01/23 10:20:28;;;;;;;1.65;0.70;;;;;;;6.42;74.64;102742.47;4831913;29;20433;-78
2022/01/23 10:35:01;;;;;;;2.13;0.55;;;;;;;6.47;74.44;102737.81;4830234;29;20383;-77
2022/01/23 10:56:55;;;;;;;1.95;0.52;;;;;;;6.67;74.34;102726.84;4831018;29;20042;-78
2022/01/23 10:59:48;;;;;;;0.80;0.45;;;;;;;6.66;74.09;102725.22;4830786;29;20076;-77
2022/01/23 11:06:26;;;;;;;2.63;0.90;;;;;;;6.74;74.27;102724.69;4831198;29;19924;-78
2022/01/23 11:09:14;;;;;;;4.75;1.80;;;;;;;6.80;74.25;102724.69;4832579;29;20046;-79
2022/01/23 11:22:48;;;;;;;3.28;1.17;;;;;;;6.86;73.76;102718.13;4830474;29;20125;-81
2022/01/23 11:58:36;;;;;;;4.97;1.80;;;;;;;7.01;73.44;102674.91;4831254;29;20077;-79
2022/01/23 12:06:12;;;;;;;3.00;1.15;;;;;;;7.09;72.71;102665.25;4830763;29;20046;-80
2022/01/23 12:09:32;;;;;;;10.18;3.45;;;;;;;7.12;73.24;102661.97;4831386;29;20065;-79
2022/01/23 12:12:37;;;;;;;3.90;1.70;;;;;;;7.17;73.53;102665.56;4830373;29;20061;-78
2022/01/23 12:19:21;;;;;;;2.95;2.20;;;;;;;7.16;73.35;102657.53;4817523;29;20046;-78
2022/01/23 12:30:07;;;;;;;5.78;1.30;;;;;;;7.17;72.97;102648.19;4828986;29;20535;-78
2022/01/23 12:32:34;;;;;;;5.22;1.75;;;;;;;7.16;73.48;102646.53;4828732;29;20041;-78
2022/01/23 12:43:09;;;;;;;3.08;1.55;;;;;;;7.17;72.95;102627.00;4831534;29;20039;-78
2022/01/23 12:47:04;;;;;;;;;;;;;;;;;;;;;
2022/01/23 12:50:09;;;;;;;7.95;3.00;;;;;;;7.21;73.41;102622.56;4794313;29;20042;-76
2022/01/23 12:53:35;;;;;;;5.63;2.42;;;;;;;7.26;73.08;102607.94;4782428;29;20047;-84
2022/01/23 12:56:29;;;;;;;7.13;1.50;;;;;;;7.29;73.35;102608.22;4781586;29;20131;-78
2022/01/23 12:59:25;;;;;;;5.63;3.25;;;;;;;7.34;73.40;102599.94;4817606;29;20050;-78
2022/01/23 13:02:17;;;;;;;4.57;2.47;;;;;;;7.40;73.41;102603.53;4831580;29;20065;-78
2022/01/23 13:05:26;;;;;;;6.85;2.00;;;;;;;7.43;72.62;102602.97;4828958;29;20050;-78
2022/01/23 13:11:08;;;;;;;4.93;1.90;;;;;;;7.46;72.99;102591.41;4829567;29;20487;-78
2022/01/23 13:13:34;;;;;;;3.10;1.73;;;;;;;7.50;73.29;102595.22;4830049;29;20133;-78
2022/01/23 13:16:33;;;;;;;9.82;3.17;;;;;;;7.51;72.60;102583.09;4828333;29;20053;-78
2022/01/23 13:31:49;;;;;;;4.10;1.90;;;;;;;7.57;72.34;102573.69;4829589;29;20049;-78
2022/01/23 13:34:37;;;;;;;10.32;2.75;;;;;;;7.59;72.59;102568.75;4830755;29;20041;-78
2022/01/23 13:37:06;;;;;;;5.78;1.15;;;;;;;7.64;72.15;102565.97;4829869;29;20089;-78
2022/01/23 13:39:56;;;;;;;6.15;2.08;;;;;;;7.65;72.19;102572.31;4830450;29;20050;-78
2022/01/23 13:53:21;;;;;;;7.97;2.17;;;;;;;7.66;71.84;102558.25;4830837;29;20098;-78
2022/01/23 13:58:40;;;;;;;12.50;4.78;;;;;;;7.73;71.92;102546.94;4830636;29;20562;-78
2022/01/23 14:05:31;;;;;;;5.75;2.05;;;;;;;7.69;71.95;102532.88;4829371;29;20094;-78
2022/01/23 14:12:06;;;;;;;9.32;1.88;;;;;;;7.73;71.90;102530.38;4833736;29;20060;-78
2022/01/23 14:14:57;;;;;;;6.80;2.00;;;;;;;7.76;71.94;102525.09;4831396;29;20058;-78
2022/01/23 14:18:01;;;;;;;9.60;2.95;;;;;;;7.76;71.73;102533.38;4833212;29;20049;-78
2022/01/23 14:21:11;;;;;;;4.38;1.42;;;;;;;7.77;71.90;102528.69;4850909;29;20375;-78
2022/01/23 14:23:39;;;;;;;6.15;1.88;;;;;;;7.80;72.12;102526.22;4833996;29;20049;-78
2022/01/23 14:26:10;;;;;;;9.88;1.70;;;;;;;7.83;72.08;102522.88;4815223;29;20205;-78
2022/01/23 14:29:34;;;;;;;10.05;2.72;;;;;;;7.85;71.90;102528.94;4831867;29;20431;-78
2022/01/23 14:32:13;;;;;;;6.57;2.08;;;;;;;7.84;71.96;102524.53;4834041;29;20486;-78
2022/01/23 14:34:49;;;;;;;18.73;3.25;;;;;;;7.80;71.56;102523.44;4833625;29;20040;-78
2022/01/23 14:37:26;;;;;;;6.80;1.23;;;;;;;7.78;71.74;102522.88;4831612;29;20053;-78
2022/01/23 14:40:18;;;;;;;9.38;2.03;;;;;;;7.77;71.56;102524.00;4834018;29;20054;-78
2022/01/23 14:43:11;;;;;;;6.60;1.90;;;;;;;7.76;71.51;102522.34;4831667;29;20046;-78
2022/01/23 14:45:44;;;;;;;9.05;2.90;;;;;;;7.72;71.55;102523.22;4815215;29;20052;-78
2022/01/23 14:48:13;;;;;;;7.18;3.80;;;;;;;7.75;71.88;102525.41;4831299;29;20081;-78
2022/01/23 14:54:56;;;;;;;8.32;1.98;;;;;;;7.73;71.99;102511.09;4830986;29;20351;-78
2022/01/23 14:57:26;;;;;;;5.60;1.52;;;;;;;7.70;71.96;102512.47;4830842;29;20390;-78
2022/01/23 14:59:57;;;;;;;5.32;1.52;;;;;;;7.68;72.06;102495.38;4831056;29;20057;-78
2022/01/23 15:02:25;;;;;;;12.63;1.48;;;;;;;7.69;72.24;102497.03;4831189;29;20129;-78
2022/01/23 15:04:52;;;;;;;6.95;1.85;;;;;;;7.70;72.24;102500.63;4847662;29;20090;-78
2022/01/23 15:11:32;;;;;;;7.78;1.80;;;;;;;7.62;72.19;102498.44;4832517;29;20758;-77
2022/01/23 15:14:19;;;;;;;4.63;1.83;;;;;;;7.60;72.02;102482.19;4830857;29;20050;-78
2022/01/23 15:17:06;;;;;;;8.02;2.08;;;;;;;7.59;72.28;102491.56;4830463;29;20046;-78
2022/01/23 15:19:54;;;;;;;7.25;3.05;;;;;;;7.57;72.28;102495.72;4833325;29;20045;-79
2022/01/23 15:22:42;;;;;;;5.30;3.35;;;;;;;7.51;72.50;102486.66;4828694;29;20045;-78
2022/01/23 15:25:30;;;;;;;4.65;2.80;;;;;;;7.49;72.65;102488.88;4831491;29;20117;-78
2022/01/23 15:28:17;;;;;;;5.70;3.33;;;;;;;7.49;72.70;102496.31;4831824;29;20046;-78
2022/01/23 15:31:05;;;;;;;11.48;4.15;;;;;;;7.47;72.76;102493.81;4832755;29;20545;-78
2022/01/23 15:33:52;;;;;;;6.95;2.60;;;;;;;7.43;72.80;102487.22;4828056;29;20561;-78
2022/01/23 15:40:53;;;;;;;5.72;2.65;;;;;;;7.39;73.14;102472.34;4797246;29;20061;-78
2022/01/23 15:47:52;;;;;;;8.30;2.05;;;;;;;7.28;73.17;102473.53;4817422;29;20050;-79
2022/01/23 15:50:39;;;;;;;10.38;3.65;;;;;;;7.25;73.32;102485.09;4789735;29;20050;-78
2022/01/23 15:56:26;;;;;;;7.90;3.10;;;;;;;7.23;73.56;102487.28;5017517;23;20073;-77
2022/01/23 15:58:53;;;;;;;7.65;2.17;;;;;;;7.24;73.41;102492.53;4806085;29;20038;-78
2022/01/23 16:01:20;;;;;;;6.28;2.00;;;;;;;7.23;73.75;102479.03;4812089;29;20559;-77
2022/01/23 16:03:48;;;;;;;6.68;1.90;;;;;;;7.25;73.31;102474.09;4827387;29;20061;-77
2022/01/23 16:06:15;;;;;;;4.70;1.77;;;;;;;7.26;73.31;102481.22;4805062;29;20077;-77
2022/01/23 16:08:42;;;;;;;6.18;2.38;;;;;;;7.27;73.23;102482.88;4813705;29;20509;-76
2022/01/23 16:11:09;;;;;;;8.05;2.65;;;;;;;7.24;73.66;102484.28;4826219;29;20050;-77
2022/01/23 16:13:36;;;;;;;8.20;2.15;;;;;;;7.24;73.39;102486.19;4812623;29;20494;-77
2022/01/23 16:16:03;;;;;;;7.68;2.40;;;;;;;7.22;73.38;102488.41;4809935;29;20046;-77
2022/01/23 16:18:30;;;;;;;9.95;3.60;;;;;;;7.18;73.59;102484.56;4808891;29;20055;-76
2022/01/23 16:20:57;;;;;;;7.70;2.13;;;;;;;7.19;73.56;102483.47;4824186;29;20113;-77
2022/01/23 16:23:24;;;;;;;6.78;2.40;;;;;;;7.18;73.58;102482.63;4813630;29;20042;-78
2022/01/23 16:26:13;;;;;;;14.25;3.50;;;;;;;7.17;73.77;102477.41;4811349;29;20498;-77
2022/01/23 16:28:40;;;;;;;8.57;2.42;;;;;;;7.18;73.46;102490.06;4810922;29;20679;-77
2022/01/23 16:31:10;;;;;;;5.00;2.13;;;;;;;7.15;73.72;102483.19;4823655;29;20050;-77
2022/01/23 16:33:41;;;;;;;9.85;2.40;;;;;;;7.13;74.00;102479.91;4810343;29;20050;-77
2022/01/23 16:36:08;;;;;;;11.77;2.97;;;;;;;7.12;74.04;102492.00;4810270;29;20054;-77
2022/01/23 16:38:37;;;;;;;5.50;1.70;;;;;;;7.13;73.90;102481.81;4813277;29;20046;-77
2022/01/23 16:41:05;;;;;;;8.25;1.92;;;;;;;7.10;73.87;102472.19;4812105;29;20074;-77
2022/01/23 16:43:33;;;;;;;6.88;2.10;;;;;;;7.10;73.87;102468.59;4812076;29;20035;-77
2022/01/23 16:46:01;;;;;;;13.13;3.70;;;;;;;7.10;73.98;102471.34;4809305;29;20042;-77
2022/01/23 16:48:28;;;;;;;16.02;4.35;;;;;;;7.04;74.01;102484.31;4810754;29;20121;-77
2022/01/23 16:50:59;;;;;;;4.18;1.73;;;;;;;7.03;74.17;102490.13;4813010;29;20133;-77
2022/01/23 16:53:26;;;;;;;7.03;3.55;;;;;;;7.03;74.11;102476.34;4811832;29;20391;-80
2022/01/23 16:55:56;;;;;;;9.27;3.90;;;;;;;7.00;74.16;102490.66;4812769;29;20038;-78
2022/01/23 16:58:28;;;;;;;7.35;2.42;;;;;;;6.96;74.11;102493.16;4847802;29;20058;-78
2022/01/23 17:00:57;;;;;;;;;;;;;;;6.96;74.50;102497.84;4845909;29;20046;-77
2022/01/23 17:03:25;;;;;;;8.13;2.63;;;;;;;6.99;74.06;102508.31;4845576;29;20346;-77
2022/01/23 17:05:52;;;;;;;11.70;2.55;;;;;;;6.98;74.24;102487.38;4848997;29;20090;-78
2022/01/23 17:08:19;;;;;;;7.75;3.08;;;;;;;6.98;74.14;102492.88;4846348;29;20154;-77
2022/01/23 17:10:52;;;;;;;11.82;2.92;;;;;;;6.96;74.29;102484.91;4845509;29;20061;-78
2022/01/23 17:13:20;;;;;;;9.73;4.40;;;;;;;6.97;74.35;102499.47;4846666;29;20924;-77
2022/01/23 17:15:47;;;;;;;11.30;3.65;;;;;;;6.98;74.18;102484.63;4842167;29;20060;-78
2022/01/23 17:18:14;;;;;;;8.20;4.32;;;;;;;6.99;74.50;102497.28;4846595;29;20038;-77
2022/01/23 17:20:42;;;;;;;12.20;4.18;;;;;;;7.01;74.42;102501.41;4847673;29;20735;-77
2022/01/23 17:23:12;;;;;;;9.38;4.25;;;;;;;7.01;74.60;102506.94;4844825;29;20045;-77
2022/01/23 17:25:38;;;;;;;11.07;4.15;;;;;;;6.99;74.43;102497.28;4843490;29;20052;-77
2022/01/23 17:28:05;;;;;;;8.13;2.55;;;;;;;6.97;74.68;102493.97;4844794;29;20057;-77
2022/01/23 17:30:32;;;;;;;10.38;3.30;;;;;;;6.93;74.58;102493.72;4845656;29;20061;-78
2022/01/23 17:32:59;;;;;;;4.80;2.60;;;;;;;6.93;74.81;102498.41;4848723;29;20559;-77
2022/01/23 17:35:26;;;;;;;6.93;2.85;;;;;;;6.95;74.70;102494.25;4848397;29;20037;-77
2022/01/23 17:37:53;;;;;;;10.68;3.20;;;;;;;6.96;74.53;102503.34;4847929;29;20140;-77
2022/01/23 17:40:20;;;;;;;9.15;3.53;;;;;;;6.97;74.80;102499.47;4848299;29;20041;-77
2022/01/23 17:42:49;;;;;;;9.63;2.90;;;;;;;6.96;74.52;102492.34;4847990;29;20053;-77
2022/01/23 17:45:24;;;;;;;11.80;4.68;;;;;;;6.97;74.86;102496.72;4847085;29;20053;-77
2022/01/23 17:50:31;;;;;;;8.73;3.67;;;;;;;6.96;74.71;102492.34;4852837;29;20045;-77
2022/01/23 17:53:34;;;;;;;9.15;4.28;;;;;;;6.95;75.17;102493.44;4849251;29;20090;-81
2022/01/23 17:56:02;;;;;;;13.35;3.75;;;;;;;6.93;74.80;102477.19;4779631;30;20070;-79
2022/01/23 17:58:29;;;;;;;14.75;6.60;;;;;;;6.95;74.82;102491.50;4838244;29;20068;-79
2022/01/23 18:00:56;;;;;;;26.80;8.50;;;;;;;6.97;74.90;102485.72;4849607;29;20049;-78
2022/01/23 18:03:24;;;;;;;13.23;5.07;;;;;;;6.96;74.95;102492.34;4849505;29;20057;-79
2022/01/23 18:05:52;;;;;;;9.23;4.45;;;;;;;6.96;74.79;102492.34;4847452;29;20504;-78
2022/01/23 18:08:21;;;;;;;11.75;4.75;;;;;;;6.96;75.03;102476.66;4851190;29;20041;-78
2022/01/23 18:10:48;;;;;;;11.45;5.55;;;;;;;6.97;75.00;102485.72;4850467;29;20097;-78
2022/01/23 18:13:22;;;;;;;10.15;4.10;;;;;;;6.98;75.06;102479.13;4835966;29;20056;-78
2022/01/23 18:15:51;;;;;;;9.20;4.72;;;;;;;6.96;74.92;102481.31;4849666;29;20046;-78
2022/01/23 18:18:18;;;;;;;15.95;6.80;;;;;;;6.97;74.80;102477.44;4847692;29;20053;-77
2022/01/23 18:20:45;;;;;;;23.85;10.75;;;;;;;6.98;74.89;102484.63;4849638;29;20053;-78
2022/01/23 18:23:13;;;;;;;15.27;5.68;;;;;;;6.98;75.04;102473.59;4864129;29;20437;-78
2022/01/23 18:25:44;;;;;;;13.13;7.28;;;;;;;6.97;74.69;102472.78;4849312;29;20052;-78
2022/01/23 18:28:13;;;;;;;14.77;5.90;;;;;;;6.97;75.31;102470.03;4849570;29;20064;-77
2022/01/23 18:30:41;;;;;;;13.00;7.07;;;;;;;6.97;74.72;102466.44;4850433;29;20053;-78
2022/01/23 18:33:22;;;;;;;15.35;7.05;;;;;;;6.95;74.85;102457.63;4846053;29;20438;-77
2022/01/23 18:35:49;;;;;;;15.38;6.72;;;;;;;6.97;75.03;102471.94;4845875;29;20050;-77
2022/01/23 18:38:19;;;;;;;14.90;7.15;;;;;;;6.96;74.97;102465.63;4846081;29;20041;-78